This is the latest recevied weather packets stored in our database for station/object AD7ZD. If no packets are shown the sender has not sent any weather packets the latest 10 day(s).
| Time | Temp. | Humidity | Pressure | Rain* | Wind** | Luminosity | Snow |
|---|---|---|---|---|---|---|---|
| 1777482905 | 14.44° C | 36% | 1018.2 hPa | 0 mm | - | 760 W/m² | - |
| 1777482600 | 14.44° C | 36% | 1018 hPa | 0 mm | - | 730 W/m² | - |
| 1777482298 | 13.89° C | 37% | 1018.2 hPa | 0 mm | - | 767 W/m² | - |
| 1777481995 | 14.44° C | 36% | 1018.3 hPa | 0 mm | - | 744 W/m² | - |
| 1777481693 | 13.89° C | 38% | 1018.3 hPa | 0 mm | - | 678 W/m² | - |
| 1777481390 | 13.33° C | 38% | 1018.4 hPa | 0 mm | - | 724 W/m² | - |
| 1777481086 | 13.89° C | 38% | 1018.2 hPa | 0 mm | - | 692 W/m² | - |
| 1777480783 | 13.89° C | 38% | 1018 hPa | 0 mm | - | 587 W/m² | - |
| 1777480479 | 13.89° C | 38% | 1018.3 hPa | 0 mm | - | 585 W/m² | - |
| 1777480176 | 13.89° C | 38% | 1018.3 hPa | 0 mm | - | 596 W/m² | - |
| 1777479872 | 13.33° C | 39% | 1018.4 hPa | 0 mm | - | 586 W/m² | - |
| 1777479569 | 13.33° C | 39% | 1018.4 hPa | 0 mm | - | 521 W/m² | - |
| 1777479267 | 11.67° C | 42% | 1018.4 hPa | 0 mm | - | 489 W/m² | - |
| 1777478963 | 12.22° C | 42% | 1018.4 hPa | 0 mm | - | 412 W/m² | - |
| 1777478660 | 11.67° C | 43% | 1018.5 hPa | 0 mm | - | 424 W/m² | - |
| 1777478356 | 11.67° C | 42% | 1018.4 hPa | 0 mm | - | 382 W/m² | - |
| 1777478053 | 11.11° C | 44% | 1018.5 hPa | 0 mm | - | 374 W/m² | - |
| 1777477749 | 10.56° C | 45% | 1018.7 hPa | 0 mm | - | 336 W/m² | - |
| 1777477445 | 11.11° C | 44% | 1018.8 hPa | 0 mm | - | 334 W/m² | - |
| 1777477142 | 10.56° C | 46% | 1018.7 hPa | 0 mm | - | 331 W/m² | - |
| 1777476839 | 9.44° C | 47% | 1018.5 hPa | 0 mm | - | 275 W/m² | - |
| 1777476536 | 10° C | 47% | 1018.5 hPa | 0 mm | - | 292 W/m² | - |
| 1777476232 | 10° C | 45% | 1018.6 hPa | 0 mm | - | 285 W/m² | - |
| 1777475928 | 10° C | 47% | 1018.6 hPa | 0 mm | - | 246 W/m² | - |
| 1777475624 | 9.44° C | 48% | 1018.6 hPa | 0 mm | - | 241 W/m² | - |
* Rain latest hour (hover to see other rain measurements)
** Current wind speed in m/s (hover to see current wind gust speed)